Time;durP1;ratioP1;P1;durP2;ratioP2;P2;SDS_P1;SDS_P2;PMS_P1;PMS_P2;Temp;Humidity;BMP_temperature;BMP_pressure;BME280_temperature;BME280_humidity;BME280_pressure;Samples;Min_cycle;Max_cycle;Signal;HPM_P1;HPM_P2
2022/02/09 00:00:45;;;;;;;15.73;9.95;;;7.90;99.90;;;;;;5025371;28;20084;-82
2022/02/09 00:03:16;;;;;;;14.88;10.02;;;8.00;99.90;;;;;;5025811;28;20698;-80
2022/02/09 00:06:02;;;;;;;15.90;10.38;;;7.90;99.90;;;;;;5025560;28;20049;-81
2022/02/09 00:08:29;;;;;;;14.85;9.98;;;7.90;99.90;;;;;;5008761;28;20060;-79
2022/02/09 00:11:02;;;;;;;14.40;8.65;;;8.00;99.90;;;;;;5024362;28;20045;-80
2022/02/09 00:13:49;;;;;;;15.88;8.55;;;7.90;99.90;;;;;;5025936;28;20099;-81
2022/02/09 00:19:22;;;;;;;14.02;8.93;;;7.90;99.90;;;;;;5016990;28;20118;-81
2022/02/09 00:38:39;;;;;;;12.13;8.88;;;7.90;99.90;;;;;;5011418;28;20075;-80
2022/02/09 01:33:10;;;;;;;11.38;8.40;;;7.90;99.90;;;;;;5008051;28;20529;-81
2022/02/09 01:57:01;;;;;;;10.93;7.85;;;7.80;99.90;;;;;;5040468;28;20049;-80
2022/02/09 01:59:28;;;;;;;13.82;6.90;;;7.80;99.90;;;;;;5007661;28;20181;-79
2022/02/09 02:01:55;;;;;;;6.93;6.30;;;7.80;99.90;;;;;;5007039;28;20107;-80
2022/02/09 02:04:25;;;;;;;6.07;5.15;;;7.80;99.90;;;;;;5007726;28;20046;-79
2022/02/09 02:06:54;;;;;;;6.82;6.10;;;7.80;99.90;;;;;;5035572;28;20048;-80
2022/02/09 02:09:23;;;;;;;7.15;5.72;;;7.80;99.90;;;;;;5016235;28;20271;-79
2022/02/09 02:11:57;;;;;;;6.90;5.63;;;7.80;99.90;;;;;;5010490;28;20044;-80
2022/02/09 02:14:37;;;;;;;6.65;5.15;;;7.90;99.90;;;;;;5011397;28;20045;-80
2022/02/09 02:17:12;;;;;;;6.05;4.43;;;7.90;99.90;;;;;;4990798;28;20596;-81
2022/02/09 02:19:45;;;;;;;6.13;4.85;;;7.80;99.90;;;;;;5007117;28;20049;-80
2022/02/09 02:22:34;;;;;;;7.20;5.32;;;7.90;99.90;;;;;;5007685;28;20602;-80
2022/02/09 02:28:12;;;;;;;7.75;6.07;;;7.80;99.90;;;;;;5022372;28;20124;-78
2022/02/09 03:13:33;;;;;;;;;;;7.70;99.90;;;;;;5025083;28;20049;-78
2022/02/09 03:16:06;;;;;;;11.05;6.97;;;7.70;99.90;;;;;;5043796;28;19947;-77
2022/02/09 03:23:53;;;;;;;12.90;7.82;;;7.60;99.90;;;;;;5025119;28;19928;-80
2022/02/09 03:26:42;;;;;;;13.48;8.88;;;7.70;99.90;;;;;;5008739;28;20044;-80
2022/02/09 03:43:15;;;;;;;7.45;6.45;;;7.70;99.90;;;;;;5017920;28;20057;-79
2022/02/09 03:46:18;;;;;;;10.68;6.97;;;7.60;99.90;;;;;;5006999;28;20053;-78
2022/02/09 03:49:33;;;;;;;9.15;7.63;;;7.70;99.90;;;;;;5023189;28;20060;-81
2022/02/09 03:56:59;;;;;;;15.77;8.77;;;7.50;99.90;;;;;;5023870;28;20053;-80
2022/02/09 03:59:30;;;;;;;9.93;7.40;;;7.50;99.90;;;;;;5013968;28;20046;-80
2022/02/09 04:01:57;;;;;;;9.45;6.22;;;7.40;99.90;;;;;;5009841;28;20131;-80
2022/02/09 04:04:25;;;;;;;9.82;6.57;;;7.40;99.90;;;;;;4992754;28;20087;-81
2022/02/09 04:06:52;;;;;;;7.45;4.97;;;7.40;99.90;;;;;;5009053;28;20394;-79
2022/02/09 04:09:24;;;;;;;5.65;5.05;;;7.40;99.90;;;;;;5035174;28;20098;-79
2022/02/09 04:12:12;;;;;;;9.00;5.55;;;7.40;99.90;;;;;;5024250;28;20076;-78
2022/02/09 04:14:50;;;;;;;6.70;4.63;;;7.40;99.90;;;;;;5028675;28;20059;-77
2022/02/09 04:17:31;;;;;;;5.32;3.50;;;7.40;99.90;;;;;;5013044;28;20056;-77
2022/02/09 04:39:04;;;;;;;6.82;3.40;;;7.20;99.90;;;;;;5016081;28;20126;-79
2022/02/09 04:41:53;;;;;;;10.00;3.97;;;7.20;99.90;;;;;;5023004;28;20047;-79
2022/02/09 04:53:21;;;;;;;6.00;4.57;;;7.20;99.90;;;;;;4985832;28;20114;-79
2022/02/09 04:55:56;;;;;;;7.25;4.88;;;7.20;99.90;;;;;;5028413;28;20076;-80
2022/02/09 04:58:38;;;;;;;6.22;4.53;;;7.10;99.90;;;;;;5013235;28;20053;-79
2022/02/09 05:25:26;;;;;;;15.32;8.82;;;7.20;99.90;;;;;;5023400;28;20103;-80
2022/02/09 05:28:00;;;;;;;13.98;9.40;;;7.20;99.90;;;;;;5027018;28;20449;-78
2022/02/09 05:30:31;;;;;;;12.95;9.05;;;7.20;99.90;;;;;;5026637;28;20143;-79
2022/02/09 05:32:58;;;;;;;15.40;8.93;;;7.20;99.90;;;;;;5011499;28;20045;-78
2022/02/09 05:35:26;;;;;;;17.23;10.50;;;7.20;99.90;;;;;;5027051;28;20083;-81
2022/02/09 05:37:55;;;;;;;13.10;9.68;;;7.20;99.90;;;;;;5027417;28;20061;-81
2022/02/09 05:40:22;;;;;;;16.70;9.40;;;7.20;99.90;;;;;;5026603;28;20060;-79
2022/02/09 05:42:49;;;;;;;15.18;9.85;;;7.30;99.90;;;;;;5028205;28;20073;-79
2022/02/09 05:45:17;;;;;;;15.10;9.15;;;7.20;99.90;;;;;;5009499;28;20052;-78
2022/02/09 05:50:31;;;;;;;11.75;8.50;;;7.30;99.90;;;;;;5007649;28;20103;-82
2022/02/09 06:00:59;;;;;;;11.43;8.18;;;7.30;99.90;;;;;;5027965;28;20460;-81
2022/02/09 06:03:26;;;;;;;12.32;8.05;;;7.30;99.90;;;;;;5000338;28;20053;-80
2022/02/09 06:05:53;;;;;;;11.18;8.32;;;7.30;99.90;;;;;;5008684;28;20049;-81
2022/02/09 06:08:22;;;;;;;12.30;9.27;;;7.30;99.90;;;;;;5040578;28;20060;-81
2022/02/09 06:11:02;;;;;;;11.05;8.65;;;7.30;99.90;;;;;;5009334;28;20041;-81
2022/02/09 06:13:49;;;;;;;14.05;8.43;;;7.30;99.90;;;;;;5011580;28;20564;-80
2022/02/09 06:21:47;;;;;;;12.00;8.10;;;7.30;99.90;;;;;;5027857;28;20537;-81
2022/02/09 06:24:14;;;;;;;11.07;8.38;;;7.40;99.90;;;;;;5010444;28;20053;-80
2022/02/09 06:26:40;;;;;;;13.32;9.38;;;7.30;99.90;;;;;;5012861;28;20106;-80
2022/02/09 06:29:08;;;;;;;10.52;6.90;;;7.30;99.90;;;;;;5029115;28;20661;-79
2022/02/09 06:31:37;;;;;;;10.35;7.40;;;7.30;99.90;;;;;;5039058;28;20067;-79
2022/02/09 06:34:04;;;;;;;10.40;7.70;;;7.30;99.90;;;;;;5037943;28;20064;-79
2022/02/09 06:36:37;;;;;;;12.00;8.25;;;7.30;99.90;;;;;;5020783;28;20532;-81
2022/02/09 06:39:06;;;;;;;10.07;7.18;;;7.30;99.90;;;;;;5020973;28;20053;-80
2022/02/09 06:41:34;;;;;;;8.82;5.90;;;7.20;99.90;;;;;;5011368;28;20045;-81
2022/02/09 06:44:01;;;;;;;9.82;6.30;;;7.20;99.90;;;;;;5008978;28;20064;-80
2022/02/09 06:46:35;;;;;;;8.02;5.30;;;7.20;99.90;;;;;;5027746;28;20113;-79
2022/02/09 06:49:07;;;;;;;7.05;4.80;;;7.20;99.90;;;;;;5012339;28;20111;-80
2022/02/09 06:51:38;;;;;;;8.38;4.80;;;7.20;99.90;;;;;;5012347;28;20063;-78
2022/02/09 06:54:24;;;;;;;6.07;4.57;;;7.20;99.90;;;;;;5026205;28;20687;-79
2022/02/09 06:59:28;;;;;;;9.00;4.72;;;7.30;99.90;;;;;;5013365;28;20456;-78
2022/02/09 07:02:04;;;;;;;5.15;3.75;;;7.30;99.90;;;;;;5030605;28;20144;-77
2022/02/09 07:04:37;;;;;;;6.45;4.85;;;7.30;99.90;;;;;;5016834;28;20048;-79
2022/02/09 07:07:06;;;;;;;6.50;4.47;;;7.30;99.90;;;;;;5033301;28;20053;-79
2022/02/09 07:09:33;;;;;;;5.28;4.43;;;7.30;99.90;;;;;;5020516;28;20118;-77
2022/02/09 07:12:00;;;;;;;6.82;4.85;;;7.30;99.90;;;;;;5009477;28;20236;-80
2022/02/09 07:14:28;;;;;;;7.95;5.57;;;7.30;99.90;;;;;;5025369;28;20049;-80
2022/02/09 07:16:56;;;;;;;6.85;5.55;;;7.30;99.90;;;;;;5022763;28;20314;-79
2022/02/09 07:19:24;;;;;;;9.68;6.53;;;7.20;99.90;;;;;;5022308;28;20048;-78
2022/02/09 07:21:52;;;;;;;8.75;6.80;;;7.20;99.90;;;;;;5008923;28;20169;-79
2022/02/09 07:24:20;;;;;;;10.05;6.78;;;7.20;99.90;;;;;;5025258;28;20052;-77
2022/02/09 07:26:50;;;;;;;9.20;7.05;;;7.20;99.90;;;;;;5008526;28;20095;-78
2022/02/09 07:29:18;;;;;;;11.05;7.63;;;7.20;99.90;;;;;;5008761;28;20118;-78
2022/02/09 07:31:46;;;;;;;11.20;8.25;;;7.20;99.90;;;;;;5025173;28;20064;-79
2022/02/09 07:34:14;;;;;;;11.88;7.72;;;7.10;99.90;;;;;;5023763;28;20052;-79
2022/02/09 07:36:45;;;;;;;15.52;9.85;;;7.10;99.90;;;;;;5008465;28;20045;-78
2022/02/09 07:39:12;;;;;;;12.90;9.02;;;7.10;99.90;;;;;;5041066;28;20045;-79
2022/02/09 07:41:42;;;;;;;14.73;9.43;;;7.10;99.90;;;;;;5009920;28;20064;-79
2022/02/09 07:46:54;;;;;;;15.00;9.35;;;7.10;99.90;;;;;;5019817;28;20053;-78
2022/02/09 07:49:49;;;;;;;13.50;9.40;;;7.20;99.90;;;;;;5028085;28;20553;-81
2022/02/09 07:52:22;;;;;;;14.90;9.63;;;7.10;99.90;;;;;;5027887;28;20737;-79
2022/02/09 07:54:50;;;;;;;13.43;9.43;;;7.20;99.90;;;;;;5010700;28;20244;-78
2022/02/09 07:57:17;;;;;;;11.95;8.52;;;7.30;99.90;;;;;;5010841;28;20037;-78
2022/02/09 07:59:44;;;;;;;11.60;8.90;;;7.30;99.90;;;;;;5028027;28;20139;-79
2022/02/09 08:02:10;;;;;;;12.75;8.57;;;7.30;99.90;;;;;;5028379;28;20061;-79
2022/02/09 08:04:37;;;;;;;11.43;8.63;;;7.30;99.90;;;;;;5028605;28;20049;-79
2022/02/09 08:07:04;;;;;;;12.00;8.60;;;7.40;99.90;;;;;;5012475;28;20045;-78
2022/02/09 08:09:36;;;;;;;12.25;8.55;;;7.50;99.90;;;;;;5025855;28;20045;-79
2022/02/09 08:30:02;;;;;;;9.70;7.80;;;7.70;99.90;;;;;;4982647;28;20050;-77
2022/02/09 08:34:35;;;;;;;8.07;7.20;;;7.70;99.90;;;;;;5026317;28;20061;-77
2022/02/09 08:37:02;;;;;;;8.70;7.40;;;7.70;99.90;;;;;;5007141;28;20505;-79
2022/02/09 08:39:29;;;;;;;10.50;7.72;;;7.80;99.90;;;;;;5022887;28;20667;-78
2022/02/09 08:41:59;;;;;;;7.85;7.13;;;7.80;99.90;;;;;;5006992;28;20513;-80
2022/02/09 08:44:29;;;;;;;8.68;6.70;;;7.80;99.90;;;;;;5023440;28;20045;-79
2022/02/09 08:46:56;;;;;;;7.13;6.43;;;7.80;99.90;;;;;;5006500;28;20529;-78
2022/02/09 08:49:22;;;;;;;8.05;7.25;;;7.80;99.90;;;;;;5022781;28;20259;-77
2022/02/09 08:51:49;;;;;;;9.68;8.38;;;7.90;99.90;;;;;;5027121;28;20048;-78
2022/02/09 08:54:17;;;;;;;10.82;7.97;;;7.90;99.90;;;;;;5011207;28;20056;-79
2022/02/09 08:56:43;;;;;;;8.63;7.82;;;8.00;99.90;;;;;;5043713;28;20118;-77
2022/02/09 08:59:10;;;;;;;9.15;7.00;;;8.00;99.90;;;;;;5000843;28;20100;-78
2022/02/09 09:01:42;;;;;;;11.30;8.13;;;8.00;99.90;;;;;;5039826;28;20050;-78
2022/02/09 09:04:23;;;;;;;8.38;5.97;;;8.00;99.90;;;;;;5040970;28;20046;-78
2022/02/09 09:06:57;;;;;;;8.23;7.38;;;8.00;99.90;;;;;;5023202;28;20642;-78
2022/02/09 09:09:49;;;;;;;8.00;6.97;;;8.00;99.90;;;;;;5019574;28;20048;-77
2022/02/09 10:01:55;;;;;;;11.65;8.85;;;8.40;99.90;;;;;;5005508;28;20072;-83
2022/02/09 10:04:41;;;;;;;11.77;9.23;;;8.40;99.90;;;;;;5013823;28;20045;-83
2022/02/09 10:32:22;;;;;;;11.90;9.05;;;8.40;99.90;;;;;;5018081;28;20222;-84
2022/02/09 10:33:55;;;;;;;14.15;9.25;;;8.20;99.90;;;;;;4998456;28;20080;-83
2022/02/09 10:36:22;;;;;;;;;;;8.10;99.90;;;;;;4997512;28;20176;-82
2022/02/09 10:39:04;;;;;;;16.27;10.20;;;8.00;99.90;;;;;;5009776;28;20213;-82
2022/02/09 10:41:37;;;;;;;19.02;11.13;;;7.90;99.90;;;;;;5011047;28;20064;-83
2022/02/09 10:44:11;;;;;;;21.23;12.43;;;7.90;99.90;;;;;;4996470;28;20044;-83
2022/02/09 10:47:03;;;;;;;18.83;12.65;;;7.90;99.90;;;;;;4994224;28;20125;-84
2022/02/09 10:49:31;;;;;;;20.92;12.52;;;7.90;99.90;;;;;;5000262;28;20041;-82
2022/02/09 10:54:29;;;;;;;21.08;14.48;;;7.80;99.90;;;;;;5008224;28;20111;-83
2022/02/09 10:57:06;;;;;;;14.90;10.77;;;7.80;99.90;;;;;;4992779;28;20744;-84
2022/02/09 10:59:37;;;;;;;17.92;11.93;;;7.80;99.90;;;;;;5011595;28;20098;-83
2022/02/09 11:02:06;;;;;;;18.38;11.48;;;7.80;99.90;;;;;;4987140;28;20425;-81
2022/02/09 11:04:33;;;;;;;17.55;12.77;;;7.70;99.90;;;;;;4988718;28;20046;-83
2022/02/09 11:07:00;;;;;;;18.17;13.07;;;7.80;99.90;;;;;;4997214;28;20055;-83
2022/02/09 11:09:29;;;;;;;16.92;11.48;;;7.80;99.90;;;;;;4985089;28;20143;-82
2022/02/09 11:11:56;;;;;;;16.50;12.00;;;7.80;99.90;;;;;;4981034;28;20060;-85
2022/02/09 11:14:25;;;;;;;18.70;13.38;;;7.90;99.90;;;;;;4983583;28;20045;-84
2022/02/09 11:16:57;;;;;;;16.20;10.82;;;7.90;99.90;;;;;;5003530;28;20478;-81
2022/02/09 11:19:35;;;;;;;14.90;11.25;;;7.90;99.90;;;;;;5002766;28;20057;-82
2022/02/09 11:22:11;;;;;;;16.13;12.15;;;7.80;99.90;;;;;;5007927;28;20099;-86
2022/02/09 11:24:45;;;;;;;19.05;12.35;;;7.90;99.90;;;;;;5004081;28;20118;-85
2022/02/09 11:27:34;;;;;;;20.25;14.13;;;7.80;99.90;;;;;;4996763;28;20710;-83
2022/02/09 11:30:11;;;;;;;22.17;14.25;;;7.80;99.90;;;;;;5005675;28;20196;-84
2022/02/09 11:32:59;;;;;;;22.20;15.07;;;7.80;99.90;;;;;;5007042;28;20662;-85
2022/02/09 11:35:33;;;;;;;21.02;14.75;;;7.80;99.90;;;;;;5008229;28;20643;-86
2022/02/09 11:51:22;;;;;;;20.02;12.57;;;7.90;99.90;;;;;;5005515;28;20061;-86
2022/02/09 12:13:54;;;;;;;7.80;6.97;;;8.80;99.90;;;;;;5019779;28;20140;-84
2022/02/09 12:16:42;;;;;;;7.80;7.00;;;8.90;99.90;;;;;;5001428;28;20045;-82
2022/02/09 12:19:13;;;;;;;8.57;6.45;;;8.80;99.90;;;;;;5021807;28;20060;-82
2022/02/09 12:24:35;;;;;;;6.55;5.90;;;8.80;99.90;;;;;;5022151;28;20047;-82
2022/02/09 12:27:08;;;;;;;5.43;4.78;;;8.80;99.90;;;;;;5028273;28;20114;-83
2022/02/09 12:29:37;;;;;;;5.53;5.07;;;8.80;99.90;;;;;;5038436;28;20065;-82
2022/02/09 12:32:17;;;;;;;4.63;4.25;;;8.70;99.90;;;;;;5028867;28;20064;-83
2022/02/09 12:34:54;;;;;;;5.32;4.82;;;8.70;99.90;;;;;;5028899;28;20045;-83
2022/02/09 12:37:22;;;;;;;4.65;4.28;;;8.70;99.90;;;;;;5029384;28;20131;-81
2022/02/09 12:39:51;;;;;;;4.88;4.57;;;8.70;99.90;;;;;;5028537;28;20118;-81
2022/02/09 12:42:19;;;;;;;4.90;4.53;;;8.70;99.90;;;;;;5011845;28;20045;-83
2022/02/09 12:45:09;;;;;;;4.13;3.83;;;8.70;99.90;;;;;;5013056;28;20064;-85
2022/02/09 12:47:38;;;;;;;5.00;4.60;;;8.60;99.90;;;;;;5006985;28;20054;-83
2022/02/09 12:50:11;;;;;;;4.07;3.67;;;8.60;99.90;;;;;;5009065;28;20049;-83
2022/02/09 12:52:40;;;;;;;4.18;3.90;;;8.60;99.90;;;;;;5009537;28;20479;-82
2022/02/09 12:55:15;;;;;;;6.72;4.40;;;8.60;99.90;;;;;;5008920;28;20065;-82
2022/02/09 12:57:42;;;;;;;;;;;8.50;99.90;;;;;;5026000;28;20137;-82
2022/02/09 13:00:27;;;;;;;5.18;4.03;;;8.50;99.90;;;;;;5025491;28;20003;-82
2022/02/09 13:02:57;;;;;;;4.20;3.90;;;8.50;99.90;;;;;;5025839;28;20057;-82
2022/02/09 13:05:25;;;;;;;4.75;4.35;;;8.40;99.90;;;;;;5010277;28;20881;-82
2022/02/09 13:08:03;;;;;;;5.45;4.68;;;8.50;99.90;;;;;;5025699;28;20502;-81
2022/02/09 13:10:38;;;;;;;5.78;5.28;;;8.50;99.90;;;;;;5011141;28;20120;-81
2022/02/09 13:13:12;;;;;;;6.32;5.18;;;8.50;99.90;;;;;;5029277;28;20145;-84
2022/02/09 13:16:13;;;;;;;7.80;5.13;;;8.50;99.90;;;;;;5011323;28;20106;-84
2022/02/09 14:12:23;;;;;;;10.43;6.65;;;8.10;99.90;;;;;;5031188;28;20052;-84
2022/02/09 14:56:02;;;;;;;8.63;7.60;;;8.00;99.90;;;;;;5017916;28;20118;-84
2022/02/09 14:58:26;;;;;;;9.38;7.75;;;8.00;99.90;;;;;;5032301;28;20247;-84
2022/02/09 15:14:06;;;;;;;10.43;8.30;;;7.90;99.90;;;;;;5048424;28;20045;-82
2022/02/09 15:16:51;;;;;;;12.55;7.28;;;8.00;99.90;;;;;;5012099;28;20546;-82
2022/02/09 15:19:38;;;;;;;10.00;7.15;;;8.00;99.90;;;;;;5010067;28;20109;-83
2022/02/09 15:22:07;;;;;;;8.65;7.50;;;8.00;99.90;;;;;;5010276;28;20051;-84
2022/02/09 15:24:44;;;;;;;11.98;7.22;;;8.00;99.90;;;;;;5007729;28;20052;-84
2022/02/09 15:27:17;;;;;;;11.07;8.48;;;8.00;99.90;;;;;;5026171;28;20068;-81
2022/02/09 15:29:49;;;;;;;10.48;8.13;;;8.00;99.90;;;;;;5031913;28;20041;-83
2022/02/09 15:32:35;;;;;;;11.25;8.25;;;8.00;99.90;;;;;;5024876;28;20048;-85
2022/02/09 15:35:30;;;;;;;11.68;7.32;;;8.00;99.90;;;;;;5042759;28;20101;-83
2022/02/09 15:38:12;;;;;;;9.30;7.55;;;7.90;99.90;;;;;;5011637;28;20522;-82
2022/02/09 16:23:49;;;;;;;;;;;7.80;99.90;;;;;;5049449;28;20055;-80
2022/02/09 16:33:12;;;;;;;13.18;8.98;;;7.80;99.90;;;;;;5012657;28;19920;-82
2022/02/09 16:46:15;;;;;;;14.20;10.13;;;7.80;99.90;;;;;;5014284;28;20525;-81
2022/02/09 16:48:46;;;;;;;14.43;9.25;;;7.80;99.90;;;;;;5011411;28;20054;-82
2022/02/09 16:51:29;;;;;;;13.25;10.40;;;7.80;99.90;;;;;;4999217;28;20064;-82
2022/02/09 17:08:19;;;;;;;14.07;10.43;;;7.80;99.90;;;;;;5029255;28;20052;-83
2022/02/09 17:18:50;;;;;;;9.20;7.90;;;7.90;99.90;;;;;;5029229;28;20179;-83
2022/02/09 17:21:35;;;;;;;8.15;7.35;;;7.80;99.90;;;;;;4995461;28;20046;-82
2022/02/09 17:24:21;;;;;;;9.50;8.07;;;7.90;99.90;;;;;;5030479;28;20053;-81
2022/02/09 17:27:04;;;;;;;;;;;;;;;;;;;;;
2022/02/09 17:30:07;;;;;;;8.93;7.70;;;7.80;99.90;;;;;;5030020;28;20053;-82
2022/02/09 17:35:25;;;;;;;11.77;9.75;;;7.90;99.90;;;;;;5000692;28;20376;-82
2022/02/09 17:38:21;;;;;;;12.52;9.80;;;7.80;99.90;;;;;;5014499;28;20048;-83
2022/02/09 17:53:32;;;;;;;11.82;9.25;;;7.80;99.90;;;;;;5043528;28;20072;-84
2022/02/09 17:56:22;;;;;;;12.25;9.18;;;7.80;99.90;;;;;;5009904;28;20080;-84
2022/02/09 17:59:15;;;;;;;11.02;9.35;;;7.80;99.90;;;;;;5010082;28;20057;-83
2022/02/09 18:01:50;;;;;;;11.77;9.57;;;7.80;99.90;;;;;;4990644;28;20045;-83
2022/02/09 18:04:31;;;;;;;9.63;8.73;;;7.70;99.90;;;;;;5013323;28;20565;-83
2022/02/09 18:08:00;;;;;;;11.13;9.65;;;7.80;99.90;;;;;;5035748;28;20544;-83
2022/02/09 18:29:20;;;;;;;14.55;10.27;;;7.80;99.90;;;;;;5028605;28;20053;-83
2022/02/09 19:18:15;;;;;;;10.90;8.55;;;7.90;99.90;;;;;;5028388;28;20049;-83
2022/02/09 19:29:00;;;;;;;15.35;10.23;;;7.90;99.90;;;;;;5027684;28;20491;-83
2022/02/09 19:31:11;;;;;;;11.75;8.80;;;7.90;99.90;;;;;;5029168;28;20063;-82
2022/02/09 19:47:06;;;;;;;9.80;8.80;;;8.00;99.90;;;;;;5028444;28;20034;-82
2022/02/09 19:49:47;;;;;;;9.85;7.60;;;8.00;99.90;;;;;;5012354;28;20677;-84
2022/02/09 19:52:31;;;;;;;9.98;9.00;;;8.00;99.90;;;;;;5012228;28;20603;-83
2022/02/09 19:57:26;;;;;;;12.85;10.20;;;8.10;99.90;;;;;;5028793;28;20136;-83
2022/02/09 19:59:56;;;;;;;33.10;19.90;;;8.10;99.90;;;;;;5030797;28;20045;-85
2022/02/09 20:02:24;;;;;;;38.85;23.73;;;8.20;99.90;;;;;;5012378;28;20052;-83
2022/02/09 20:04:56;;;;;;;14.27;10.93;;;8.10;99.90;;;;;;5010760;28;20053;-84
2022/02/09 20:07:23;;;;;;;14.38;12.90;;;8.20;99.90;;;;;;4993443;28;20045;-84
2022/02/09 20:09:50;;;;;;;12.38;11.27;;;8.20;99.90;;;;;;5011716;28;20045;-84
2022/02/09 20:12:17;;;;;;;14.55;11.95;;;8.20;99.90;;;;;;5012434;28;20048;-84
2022/02/09 20:14:47;;;;;;;12.05;10.48;;;8.30;99.90;;;;;;5028819;28;20041;-84
2022/02/09 20:17:14;;;;;;;13.10;11.38;;;8.30;99.90;;;;;;5025576;28;20038;-85
2022/02/09 20:19:47;;;;;;;12.43;11.20;;;8.30;99.90;;;;;;5025371;28;20053;-83
2022/02/09 20:22:17;;;;;;;15.18;11.98;;;8.30;99.90;;;;;;5009169;28;20125;-84
2022/02/09 20:24:44;;;;;;;15.52;13.25;;;8.30;99.90;;;;;;5009381;28;20045;-84
2022/02/09 20:27:14;;;;;;;12.23;10.93;;;8.30;99.90;;;;;;5011384;28;20099;-84
2022/02/09 20:29:42;;;;;;;16.80;13.98;;;8.20;99.90;;;;;;5012381;28;20069;-83
2022/02/09 20:32:18;;;;;;;18.10;12.68;;;8.20;99.90;;;;;;5029606;28;20056;-84
2022/02/09 20:35:06;;;;;;;15.43;11.80;;;8.30;99.90;;;;;;5012999;28;20057;-84
2022/02/09 20:37:36;;;;;;;11.90;10.75;;;8.20;99.90;;;;;;5028304;28;20044;-84
2022/02/09 20:40:11;;;;;;;15.15;12.00;;;8.20;99.90;;;;;;5013872;28;20045;-84
2022/02/09 20:42:44;;;;;;;13.68;12.13;;;8.10;99.90;;;;;;5030424;28;20041;-84
2022/02/09 20:45:22;;;;;;;15.57;12.02;;;8.10;99.90;;;;;;5032350;28;20103;-85
2022/02/09 20:47:56;;;;;;;14.57;10.35;;;8.00;99.90;;;;;;5009608;28;20144;-84
2022/02/09 20:50:24;;;;;;;10.93;9.02;;;7.90;99.90;;;;;;5033233;28;20049;-85
2022/02/09 20:52:51;;;;;;;10.90;9.85;;;7.90;99.90;;;;;;5034105;28;20037;-84
2022/02/09 20:55:17;;;;;;;11.15;9.73;;;8.00;99.90;;;;;;5031910;28;20041;-81
2022/02/09 20:57:44;;;;;;;11.18;9.63;;;8.00;99.90;;;;;;5016581;28;20641;-83
2022/02/09 21:00:19;;;;;;;10.70;9.52;;;8.00;99.90;;;;;;5032263;28;20041;-83
2022/02/09 21:02:54;;;;;;;11.70;9.43;;;8.00;99.90;;;;;;5016507;28;20053;-84
2022/02/09 21:13:33;;;;;;;12.60;10.82;;;8.00;99.90;;;;;;5031848;28;20052;-83
2022/02/09 21:56:49;;;;;;;21.13;15.40;;;8.00;99.90;;;;;;5030591;28;20122;-83
2022/02/09 21:59:36;;;;;;;21.13;16.60;;;8.00;99.90;;;;;;5031663;28;20049;-83
2022/02/09 22:16:19;;;;;;;23.15;18.45;;;8.20;99.90;;;;;;5031331;28;20071;-82
2022/02/09 22:16:50;;;;;;;25.75;19.85;;;8.20;99.90;;;;;;5034468;28;20132;-82
2022/02/09 22:48:37;;;;;;;19.40;16.98;;;8.20;99.90;;;;;;5015855;28;20167;-85
2022/02/09 22:56:35;;;;;;;21.23;16.92;;;8.20;99.90;;;;;;5034644;28;19986;-86
2022/02/09 22:59:08;;;;;;;24.02;17.65;;;8.30;99.90;;;;;;5035599;28;20048;-86
2022/02/09 23:01:59;;;;;;;17.13;15.30;;;8.30;99.90;;;;;;5019827;28;20045;-85
2022/02/09 23:07:10;;;;;;;22.40;17.38;;;8.30;99.90;;;;;;5036784;28;20048;-86
2022/02/09 23:12:47;;;;;;;20.05;17.77;;;8.30;99.90;;;;;;5022338;28;20060;-86
2022/02/09 23:15:24;;;;;;;21.27;17.77;;;8.30;99.90;;;;;;5017811;28;20088;-86
